createdAt,value
2022-08-12T00:04:20.942Z,98790.16
2022-08-12T00:09:38.660Z,98774.63
2022-08-12T00:14:58.026Z,98783.41
2022-08-12T00:20:18.410Z,98793.09
2022-08-12T00:26:00.457Z,98790.34
2022-08-12T00:31:13.226Z,98779.41
2022-08-12T00:36:43.114Z,98786.34
2022-08-12T00:42:05.505Z,98785.44
2022-08-12T00:47:25.254Z,98788.16
2022-08-12T00:52:30.987Z,98796.34
2022-08-12T00:57:39.471Z,98799.69
2022-08-12T01:02:48.502Z,98803.44
2022-08-12T01:08:06.468Z,98791.03
2022-08-12T01:13:19.419Z,98800.66
2022-08-12T01:18:27.466Z,98800.47
2022-08-12T01:23:48.794Z,98806.31
2022-08-12T01:28:59.912Z,98798.75
2022-08-12T01:34:28.373Z,98797.44
2022-08-12T01:39:35.284Z,98794.50
2022-08-12T01:44:42.986Z,98790.69
2022-08-12T01:50:05.421Z,98786.69
2022-08-12T01:55:13.040Z,98780.97
2022-08-12T02:00:22.640Z,98784.31
2022-08-12T02:06:05.000Z,98782.19
2022-08-12T02:11:22.870Z,98777.34
2022-08-12T02:16:53.283Z,98770.34
2022-08-12T02:22:14.989Z,98768.19
2022-08-12T02:27:22.571Z,98775.22
2022-08-12T02:32:30.669Z,98770.34
2022-08-12T02:37:38.861Z,98766.25
2022-08-12T02:42:54.088Z,98768.03
2022-08-12T02:48:09.235Z,98760.63
2022-08-12T02:53:15.056Z,98758.59
2022-08-12T02:58:21.362Z,98767.09
2022-08-12T03:03:41.900Z,98759.81
2022-08-12T03:08:53.887Z,98757.78
2022-08-12T03:14:03.293Z,98757.25
2022-08-12T03:19:12.358Z,98760.69
2022-08-12T03:24:20.367Z,98766.78
2022-08-12T03:29:30.628Z,98759.50
2022-08-12T03:34:39.844Z,98758.09
2022-08-12T03:39:46.980Z,98754.84
2022-08-12T03:45:12.031Z,98760.38
2022-08-12T03:56:02.198Z,98770.06
2022-08-12T04:01:07.730Z,98762.88
2022-08-12T04:06:16.372Z,98763.59
2022-08-12T04:11:54.967Z,98771.44
2022-08-12T04:17:00.081Z,98782.22
2022-08-12T04:22:07.920Z,98775.81
2022-08-12T04:27:14.412Z,98775.91
2022-08-12T04:32:19.450Z,98786.44
2022-08-12T04:37:27.027Z,98777.16
2022-08-12T04:42:32.777Z,98780.50
2022-08-12T04:47:38.319Z,98787.91
2022-08-12T04:52:46.923Z,98776.00
2022-08-12T04:57:53.562Z,98784.72
2022-08-12T05:02:58.574Z,98790.50
2022-08-12T05:08:08.033Z,98791.69
2022-08-12T05:13:15.512Z,98797.94
2022-08-12T05:18:20.906Z,98805.38
2022-08-12T05:23:32.242Z,98798.41
2022-08-12T05:28:37.664Z,98797.38
2022-08-12T05:33:45.962Z,98810.72
2022-08-12T05:38:59.730Z,98820.97
2022-08-12T05:44:07.058Z,98806.63
2022-08-12T05:49:12.351Z,98812.94
2022-08-12T05:54:31.001Z,98811.13
2022-08-12T05:59:46.652Z,98813.34
2022-08-12T06:04:54.302Z,98816.91
2022-08-12T06:10:02.320Z,98818.47
2022-08-12T06:15:09.255Z,98808.44
2022-08-12T06:20:27.228Z,98813.88
2022-08-12T06:25:37.571Z,98817.88
2022-08-12T06:30:42.565Z,98821.06
2022-08-12T06:35:50.427Z,98825.88
2022-08-12T06:41:13.280Z,98830.75
2022-08-12T06:46:18.485Z,98827.63
2022-08-12T06:51:23.596Z,98819.91
2022-08-12T06:57:01.892Z,98815.25
2022-08-12T07:01:57.104Z,98812.63
2022-08-12T07:07:03.111Z,98819.75
2022-08-12T07:12:20.058Z,98810.44
2022-08-12T07:17:25.754Z,98813.06
2022-08-12T07:22:31.050Z,98821.69
2022-08-12T07:27:43.689Z,98815.38
2022-08-12T07:32:49.912Z,98805.91
2022-08-12T07:37:55.932Z,98802.91
2022-08-12T07:43:03.882Z,98784.53
2022-08-12T07:48:09.220Z,98797.59
2022-08-12T07:53:14.192Z,98797.34
2022-08-12T07:58:22.358Z,98785.94
2022-08-12T08:03:28.307Z,98785.66
2022-08-12T08:08:34.151Z,98781.31
2022-08-12T08:13:42.449Z,98792.03
2022-08-12T08:18:47.559Z,98788.03
2022-08-12T08:24:05.457Z,98788.94
2022-08-12T08:29:14.620Z,98789.22
2022-08-12T08:34:33.668Z,98795.13
2022-08-12T08:39:46.874Z,98798.97
2022-08-12T08:44:58.969Z,98797.88
2022-08-12T08:50:04.357Z,98799.84
2022-08-12T08:55:10.429Z,98796.25
2022-08-12T09:00:20.592Z,98798.16
2022-08-12T09:05:26.070Z,98791.00
2022-08-12T09:10:32.615Z,98793.97
2022-08-12T09:15:41.839Z,98802.06
2022-08-12T09:20:50.993Z,98803.97
2022-08-12T09:25:56.309Z,98785.09
2022-08-12T09:32:03.206Z,98789.84
2022-08-12T09:36:58.364Z,98789.94
2022-08-12T09:42:38.073Z,98784.81
2022-08-12T09:47:37.768Z,98777.03
2022-08-12T09:52:45.924Z,98757.19
2022-08-12T09:58:07.565Z,98759.88
2022-08-12T10:03:32.210Z,98758.81
2022-08-12T10:08:40.237Z,98757.31
2022-08-12T10:13:46.436Z,98747.56
2022-08-12T10:18:57.541Z,98741.66
2022-08-12T10:24:05.217Z,98732.53
2022-08-12T10:30:03.582Z,98739.84
2022-08-12T10:34:57.102Z,98735.09
2022-08-12T10:40:09.575Z,98723.53
2022-08-12T10:45:18.077Z,98715.59
2022-08-12T10:50:28.638Z,98715.72
2022-08-12T10:55:42.828Z,98700.34
2022-08-12T11:01:25.611Z,98710.53
2022-08-12T11:07:08.937Z,98705.03
2022-08-12T11:12:35.771Z,98707.78
2022-08-12T11:17:43.989Z,98695.34
2022-08-12T11:22:41.021Z,98687.31
2022-08-12T11:27:46.298Z,98685.38
2022-08-12T11:32:56.222Z,98687.94
2022-08-12T11:38:06.227Z,98684.59
2022-08-12T11:43:19.855Z,98677.53
2022-08-12T11:48:27.129Z,98674.03
2022-08-12T11:53:57.263Z,98672.28
2022-08-12T12:02:01.679Z,98674.63
2022-08-12T12:04:28.939Z,98661.94
2022-08-12T12:09:52.535Z,98663.34
2022-08-12T12:15:03.187Z,98665.16
2022-08-12T12:20:14.640Z,98660.94
2022-08-12T12:26:07.551Z,98652.69
2022-08-12T12:30:54.685Z,98646.13
2022-08-12T12:36:18.630Z,98654.44
2022-08-12T12:42:42.021Z,98638.44
2022-08-12T12:46:52.885Z,98630.13
2022-08-12T12:52:19.606Z,98635.94
2022-08-12T12:57:36.230Z,98614.56
2022-08-12T13:02:55.805Z,98637.88
2022-08-12T13:08:04.184Z,98617.25
2022-08-12T13:14:09.249Z,98616.63
2022-08-12T13:18:39.465Z,98620.50
2022-08-12T13:23:48.062Z,98625.19
2022-08-12T13:28:56.748Z,98625.09
2022-08-12T13:39:30.313Z,98626.97
2022-08-12T13:44:37.711Z,98634.16
2022-08-12T13:49:54.858Z,98628.47
2022-08-12T13:55:06.190Z,98632.00
2022-08-12T14:00:15.565Z,98622.19
2022-08-12T14:05:37.982Z,98618.66
2022-08-12T14:10:50.462Z,98604.88
2022-08-12T14:16:01.498Z,98608.31
2022-08-12T14:21:18.190Z,98603.66
2022-08-12T14:26:28.854Z,98601.69
2022-08-12T14:31:43.087Z,98590.22
2022-08-12T14:36:48.071Z,98598.09
2022-08-12T14:41:57.409Z,98599.59
2022-08-12T14:47:07.709Z,98590.97
2022-08-12T14:53:50.650Z,98591.97
2022-08-12T14:57:56.548Z,98599.34
2022-08-12T15:03:06.356Z,98588.63
2022-08-12T15:08:17.107Z,98599.16
2022-08-12T15:13:27.872Z,98591.41
2022-08-12T15:18:36.442Z,98578.84
2022-08-12T15:23:54.858Z,98590.50
2022-08-12T15:29:00.545Z,98586.44
2022-08-12T15:34:09.103Z,98590.72
2022-08-12T15:39:16.752Z,98586.34
2022-08-12T15:44:38.654Z,98585.16
2022-08-12T15:50:00.147Z,98572.19
2022-08-12T15:55:11.641Z,98575.13
2022-08-12T16:00:31.614Z,98575.78
2022-08-12T16:06:19.435Z,98573.56
2022-08-12T16:11:14.755Z,98567.75
2022-08-12T16:16:23.717Z,98566.88
2022-08-12T16:21:52.719Z,98572.44
2022-08-12T16:26:57.368Z,98569.00
2022-08-12T16:32:06.407Z,98556.72
2022-08-12T16:37:15.792Z,98552.41
2022-08-12T16:42:22.698Z,98544.16
2022-08-12T16:47:43.907Z,98547.28
2022-08-12T16:53:03.319Z,98553.91
2022-08-12T16:58:28.341Z,98546.72
2022-08-12T17:03:37.780Z,98549.56
2022-08-12T17:08:55.226Z,98541.81
2022-08-12T17:14:01.730Z,98546.00
2022-08-12T17:19:09.186Z,98552.34
2022-08-12T17:24:22.473Z,98551.63
2022-08-12T17:30:00.888Z,98538.69
2022-08-12T17:35:16.390Z,98540.66
2022-08-12T17:40:35.243Z,98534.03
2022-08-12T17:45:47.330Z,98533.53
2022-08-12T17:50:53.930Z,98537.19
2022-08-12T17:56:03.021Z,98545.25
2022-08-12T18:01:11.455Z,98541.94
2022-08-12T18:06:16.352Z,98545.72
2022-08-12T18:12:03.870Z,98547.56
2022-08-12T18:17:02.698Z,98547.31
2022-08-12T18:22:08.030Z,98546.84
2022-08-12T18:27:30.196Z,98551.06
2022-08-12T18:32:58.294Z,98544.44
2022-08-12T18:38:05.677Z,98560.53
2022-08-12T18:43:16.784Z,98566.59
2022-08-12T18:48:23.719Z,98566.59
2022-08-12T18:54:07.374Z,98558.66
2022-08-12T18:58:59.430Z,98562.72
2022-08-12T19:04:06.919Z,98564.09
2022-08-12T19:09:15.576Z,98561.59
2022-08-12T19:14:29.661Z,98563.53
2022-08-12T19:19:41.568Z,98565.41
2022-08-12T19:24:59.701Z,98573.66
2022-08-12T19:30:08.988Z,98583.66
2022-08-12T19:40:40.384Z,98575.50
2022-08-12T19:45:56.668Z,98569.47
2022-08-12T19:51:22.761Z,98568.06
2022-08-12T19:56:28.320Z,98572.28
2022-08-12T20:02:01.697Z,98579.34
2022-08-12T20:07:05.444Z,98579.00
2022-08-12T20:12:18.057Z,98574.34
2022-08-12T20:17:36.179Z,98575.19
2022-08-12T20:29:04.240Z,98579.78
2022-08-12T20:34:19.439Z,98579.78
2022-08-12T20:39:52.314Z,98571.13
2022-08-12T20:44:49.831Z,98574.66
2022-08-12T20:50:00.150Z,98578.44
2022-08-12T20:55:15.362Z,98570.75
2022-08-12T21:00:28.395Z,98578.56
2022-08-12T21:06:12.281Z,98579.34
2022-08-12T21:11:13.063Z,98573.56
2022-08-12T21:16:35.367Z,98574.66
2022-08-12T21:21:50.215Z,98588.91
2022-08-12T21:27:03.351Z,98585.94
2022-08-12T21:32:36.574Z,98582.06
2022-08-12T21:37:41.651Z,98580.28
2022-08-12T21:42:47.445Z,98585.22
2022-08-12T21:47:53.546Z,98579.56
2022-08-12T21:53:10.031Z,98576.06
2022-08-12T21:58:21.241Z,98580.56
2022-08-12T22:04:03.023Z,98569.53
2022-08-12T22:09:16.006Z,98573.25
2022-08-12T22:14:24.983Z,98578.16
2022-08-12T22:19:33.635Z,98576.94
2022-08-12T22:24:44.185Z,98574.69
2022-08-12T22:30:02.925Z,98575.59
2022-08-12T22:35:23.338Z,98581.97
2022-08-12T22:40:36.330Z,98585.41
2022-08-12T22:45:56.494Z,98588.78
2022-08-12T22:51:03.801Z,98578.78
2022-08-12T22:56:14.614Z,98575.84
2022-08-12T23:01:28.636Z,98573.56
2022-08-12T23:06:48.540Z,98569.16
2022-08-12T23:12:02.361Z,98574.41
2022-08-12T23:17:35.199Z,98562.69
2022-08-12T23:22:36.281Z,98567.28
2022-08-12T23:27:59.957Z,98562.88
2022-08-12T23:33:20.058Z,98560.16
2022-08-12T23:38:31.658Z,98560.56
2022-08-12T23:43:42.915Z,98553.84
2022-08-12T23:48:56.892Z,98553.88
2022-08-12T23:54:07.430Z,98558.47
2022-08-12T23:59:16.670Z,98555.94
